Relevés horaires Semmerzake (Belgique)


Relevés horaires à Semmerzake - Jeudi 01 Juill. 2021
Heure UTC1 Température [°C] Vent [km/h] Hum. [%] Pres.4 [hPa] Visi. [Km] Nébu. [octa] Préc.5 [mm] Cond.
2m. Res. Ros. Dir.2 Vit. Moy. Raf.3
23:00 13.7 13.7 11.5 NNO 1.9 -- 3.7 87 1017.3(-0.1/3h) 20 -- -- --
22:00 13.4 13.4 10.5 NNO 1.9 -- 1.9 83 1017.5(0.1/3h) 20 -- -- --
21:00 13.1 13.1 10.1 NNO 1.9 -- 7.4 82 1017.7(0.2/3h) 20 -- -- --
20:00 15.3 15.3 10.6 NNO 1.9 -- 3.7 74 1017.5(0.1/3h) 20 -- -- --
19:00 16.9 16.9 10.3 NNO 3.7 -- 7.4 65 1017.3(-0.3/3h) 20 -- -- --
18:00 17.8 17.8 10.1 NO 3.7 -- 14.8 61 1017.3(-0.2/3h) 20 -- -- --
17:00 17.4 17.4 9.9 ONO 3.7 -- 11.1 61 1017.3(-0.4/3h) 20 -- -- --
16:00 17.0 17.0 9.2 NO 5.6 -- 13.0 60 1017.7(0.0/3h) 20 -- -- --
15:00 17.1 17.1 8.8 ONO 3.7 -- 14.8 58 1017.6(0.1/3h) 19 -- -- --
14:00 16.6 16.6 9.4 NO 5.6 -- 11.1 62 1017.7(0.1/3h) 17 -- -- --
13:00 16.6 16.6 9.1 O 3.7 -- 13.0 61 1017.7(0.0/3h) 19 -- -- --
12:00 16.1 16.1 9.2 ONO 5.6 -- 11.1 64 1017.5(0.0/3h) 17 -- -- --
11:00 15.1 15.1 9.0 ONO 3.7 -- 11.1 67 1017.7(0.3/3h) 20 -- -- --
10:00 14.3 14.3 8.9 ONO 3.7 -- 9.3 70 1017.7(0.5/3h) 18 -- -- --
09:00 14.0 14.0 9.3 O 3.7 -- 9.3 73 1017.5(0.6/3h) 14 -- -- --
08:00 13.6 13.6 9.9 NNO 1.9 -- 7.4 78 1017.2(0.7/3h) 19 -- -- --
07:00 13.1 13.1 9.8 O 3.7 -- 9.3 80 1017.1(0.4/3h) 17 -- -- --
06:00 13.1 13.1 10.4 NO 3.7 -- 7.4 84 1016.8(0.1/3h) 19 -- 0.5/12h
NA
05:00 12.8 12.8 11.6 O 3.7 -- 5.6 92 1016.6(0.0/3h) 13 -- -- --
04:00 12.6 12.6 11.7 NNO 1.9 -- 7.4 94 1016.7(-0.1/3h) 10 -- -- NA
03:00 12.6 12.6 11.7 OSO 3.7 3.7 5.6 94 1016.7(-0.2/3h) 9 -- -- --
02:00 12.8 12.8 11.9 O 3.7 -- 5.6 94 1016.6(-0.4/3h) 8 -- -- --
01:00 12.9 12.9 12.0 O 3.7 -- 5.6 94 1016.7(0.0/3h) 8 -- -- --
00:00 12.9 12.9 11.8 OSO 3.7 -- 9.3 93 1016.8(0.3/3h) 10 -- 0.5/6h
NA

1 Coordinated Universal Time. Actuellement il est 22:00 locale et 20:00 UTC.

2 Le vent souffle depuis la direction indiquée vers la direction oposée.

3 Les rafales max. sont disponible 40 min après l'heure du relevé.

4 Pour les stations d'altitude (plus de 600m) le géopotentiel du niveau le plus proche de la pression obligatoire est indiqué.

5 Les stations disposant d'un diffuseur peuvent indiquer "trace". Cela signifie que des précipitations ont touchés le sol mais que la quantité est inférieure à 0.1 mm.

Récapitulatif de la journée
Température [°C] Vent [km/h] Ensoleillement4 [h] Precipitations totale5 [mm] Pression [Hpa]
Min1 Max.2 Moy.3 Max. Min Max.
12.6 18.6 3.7 14.8 0 h 0 min 0 1016.6 1017.7

1 Température minimale relevée entre 18:00 UTC la veille et 18:00 UTC le jour donné.

2 Température maximale relevée entre 06:00 UTC le jour donné et 06:00 UTC le lendemain.

3 Vent moyen de la journée basé sur les relevés horaires.

4 Ensoleillement en heures relevé entre 06:00 UTC la veille et 06:00 UTC le jour donné.

5 Précipitations totales tombées entre 06:00 UTC la jour donné et 06:00 UTC le lendemain.

Graphiques horaires